This is the latest recevied weather packets stored in our database for station/object AE0NK. If no packets are shown the sender has not sent any weather packets the latest 10 day(s).
| Time | Temp. | Humidity | Pressure | Rain* | Wind** | Luminosity | Snow |
|---|---|---|---|---|---|---|---|
| 1777597399 | 11.11° C | 46% | 1014.8 hPa | 0 mm | - | 0 W/m² | - |
| 1777597092 | 11.11° C | 43% | 1014.8 hPa | 0 mm | - | 0 W/m² | - |
| 1777596811 | 11.11° C | 44% | 1014.7 hPa | 0 mm | - | 5 W/m² | - |
| 1777596509 | 11.67° C | 43% | 1014.8 hPa | 0 mm | - | 9 W/m² | - |
| 1777596207 | 11.67° C | 42% | 1014.6 hPa | 0 mm | - | 11 W/m² | - |
| 1777595906 | 11.67° C | 42% | 1014.6 hPa | 0 mm | - | 12 W/m² | - |
| 1777595604 | 11.67° C | 43% | 1014.5 hPa | 0 mm | - | 14 W/m² | - |
| 1777595303 | 12.22° C | 42% | 1014.4 hPa | 0 mm | - | 19 W/m² | - |
| 1777595002 | 12.22° C | 42% | 1014.4 hPa | 0 mm | - | 26 W/m² | - |
| 1777594701 | 12.22° C | 45% | 1014.4 hPa | 0 mm | - | 58 W/m² | - |
| 1777594399 | 12.22° C | 45% | 1014.4 hPa | 0 mm | - | 56 W/m² | - |
| 1777594098 | 12.22° C | 46% | 1014.4 hPa | 0 mm | - | 49 W/m² | - |
| 1777593795 | 12.22° C | 47% | 1014.4 hPa | 0 mm | - | 69 W/m² | - |
| 1777593510 | 12.22° C | 46% | 1014.4 hPa | 0 mm | - | 56 W/m² | - |
| 1777593208 | 12.22° C | 46% | 1014.4 hPa | 0 mm | - | 60 W/m² | - |
| 1777592903 | 12.22° C | 47% | 1014.4 hPa | 0 mm | - | 54 W/m² | - |
| 1777592592 | 12.22° C | 48% | 1014.5 hPa | 0 mm | - | 58 W/m² | - |
| 1777592310 | 12.22° C | 50% | 1014.5 hPa | 0 mm | - | 76 W/m² | - |
| 1777592010 | 12.22° C | 52% | 1014.5 hPa | 0 mm | - | 81 W/m² | - |
| 1777591706 | 12.22° C | 52% | 1014.4 hPa | 0 mm | - | 93 W/m² | - |
| 1777591402 | 12.22° C | 52% | 1014.5 hPa | 0 mm | - | 90 W/m² | - |
| 1777591099 | 12.22° C | 50% | 1014.5 hPa | 0 mm | - | 70 W/m² | - |
| 1777590796 | 12.22° C | 52% | 1014.5 hPa | 0 mm | - | 69 W/m² | - |
| 1777590494 | 12.22° C | 52% | 1014.5 hPa | 0 mm | - | 88 W/m² | - |
| 1777590194 | 12.22° C | 52% | 1014.5 hPa | 0 mm | - | 90 W/m² | - |
* Rain latest hour (hover to see other rain measurements)
** Current wind speed in m/s (hover to see current wind gust speed)